METAR AND TAF INFORMATION
METAR FOR EHWO
ADDS - METARS form results

(0432 UTC 21 April 2021)
Data provider http://aviationweather.gov/metar/data/
 
METAR text: EHWO 210425Z AUTO VRB01KT 4000 BR FEW015CB OVC290 04/04 Q1017 GRN
Conditions at: EHWO (WOENSDRECHT RNLA, NL) observed 0425 UTC 21 April 2021
Temperature: 4.0°C (39°F)
Dewpoint: 4.0°C (39°F) [RH = 100%]
Pressure (altimeter): 30.03 inches Hg (1017.0 mb)
Winds: variable direction winds at 1 MPH (1 knots; 0.5 m/s)
Visibility: 2.49 miles (4.01 km)
Ceiling: 29000 feet AGL
Clouds: few clouds at 1500 feet AGL
overcast cloud deck at 29000 feet AGL
Weather: BR  (mist)

METAR text: EHWO 210413Z AUTO VRB01KT 3800 BR FEW015CB OVC290 04/03 Q1017 GRN
Conditions at: EHWO (WOENSDRECHT RNLA, NL) observed 0413 UTC 21 April 2021
Temperature: 4.0°C (39°F)
Dewpoint: 3.0°C (37°F) [RH = 93%]
Pressure (altimeter): 30.03 inches Hg (1017.0 mb)
Winds: variable direction winds at 1 MPH (1 knots; 0.5 m/s)
Visibility: 2.36 miles (3.80 km)
Ceiling: 29000 feet AGL
Clouds: few clouds at 1500 feet AGL
overcast cloud deck at 29000 feet AGL
Weather: BR  (mist)

METAR text: EHWO 210355Z AUTO VRB01KT 3000 BR NCD 03/03 Q1017 YLO
Conditions at: EHWO (WOENSDRECHT RNLA, NL) observed 0355 UTC 21 April 2021
Temperature: 3.0°C (37°F)
Dewpoint: 3.0°C (37°F) [RH = 100%]
Pressure (altimeter): 30.03 inches Hg (1017.0 mb)
Winds: variable direction winds at 1 MPH (1 knots; 0.5 m/s)
Visibility: 1.86 miles (2.99 km)
Ceiling: at least 12,000 feet AGL
Clouds: sky clear below 12,000 feet AGL
Weather: BR  (mist)

METAR text: EHWO 210347Z AUTO 00000KT 2800 BR FEW015CB SCT250 03/03 Q1016 YLO
Conditions at: EHWO (WOENSDRECHT RNLA, NL) observed 0347 UTC 21 April 2021
Temperature: 3.0°C (37°F)
Dewpoint: 3.0°C (37°F) [RH = 100%]
Pressure (altimeter): 30.00 inches Hg (1016.0 mb)
Winds: calm
Visibility: 1.74 miles (2.80 km)
Ceiling: at least 12,000 feet AGL
Clouds: few clouds at 1500 feet AGL
scattered clouds at 25000 feet AGL
Weather: BR  (mist)

METAR text: EHWO 210334Z AUTO 00000KT 2200 BR FEW015CB OVC250 03/02 Q1016 YLO
Conditions at: EHWO (WOENSDRECHT RNLA, NL) observed 0334 UTC 21 April 2021
Temperature: 3.0°C (37°F)
Dewpoint: 2.0°C (36°F) [RH = 93%]
Pressure (altimeter): 30.00 inches Hg (1016.0 mb)
Winds: calm
Visibility: 1.37 miles (2.20 km)
Ceiling: 25000 feet AGL
Clouds: few clouds at 1500 feet AGL
overcast cloud deck at 25000 feet AGL
Weather: BR  (mist)

 AIRPORT MAP

 RUNWAY INFORMATION
Runway 07 Runway length 7996 ft Runway width 148 ft
Runway elevation 39 ft Runway displaced threshold 0 ft Runway heading 69
Runway 25 Runway length 7996 ft Runway width 148 ft
Runway elevation 63 ft Runway displaced threshold 0 ft Runway heading 249

 AIRPORT FREQUENCIES
Type APP Name RAPCON WES Frequency 123.575 MHZ
Type ARR Name ARRIVAL Frequency 123.575 MHZ
Type TWR Name TWR Frequency 118.5 MHZ

 AIRPORT NEAR NAVIGATION AIDS
Type TACAN Name Woensdrecht Frequency 115000 KHZ